sensor_id;sensor_type;location;lat;lon;timestamp;pressure;altitude;pressure_sealevel;temperature;humidity
65756;BME280;69208;47.502;18.940;2023-05-13T00:00:33;98495.97;;;9.58;100.00
65756;BME280;69208;47.502;18.940;2023-05-13T00:01:36;98504.12;;;9.56;100.00
65756;BME280;69208;47.502;18.940;2023-05-13T00:02:40;98495.91;;;9.68;100.00
65756;BME280;69208;47.502;18.940;2023-05-13T00:03:43;98495.91;;;9.68;100.00
65756;BME280;69208;47.502;18.940;2023-05-13T00:04:46;98501.13;;;9.68;100.00
65756;BME280;69208;47.502;18.940;2023-05-13T00:05:49;98500.66;;;9.61;100.00
65756;BME280;69208;47.502;18.940;2023-05-13T00:06:51;98505.88;;;9.61;100.00
65756;BME280;69208;47.502;18.940;2023-05-13T00:07:54;98505.03;;;9.71;100.00
65756;BME280;69208;47.502;18.940;2023-05-13T00:08:58;98498.59;;;9.58;100.00
65756;BME280;69208;47.502;18.940;2023-05-13T00:10:01;98497.22;;;9.66;100.00
65756;BME280;69208;47.502;18.940;2023-05-13T00:11:04;98498.84;;;9.62;100.00
65756;BME280;69208;47.502;18.940;2023-05-13T00:12:06;98491.25;;;9.60;100.00
65756;BME280;69208;47.502;18.940;2023-05-13T00:13:09;98501.31;;;9.48;100.00
65756;BME280;69208;47.502;18.940;2023-05-13T00:14:15;98496.22;;;9.62;100.00
65756;BME280;69208;47.502;18.940;2023-05-13T00:15:17;98500.63;;;9.66;100.00
65756;BME280;69208;47.502;18.940;2023-05-13T00:16:20;98499.03;;;9.70;100.00
65756;BME280;69208;47.502;18.940;2023-05-13T00:17:25;98504.91;;;9.57;100.00
65756;BME280;69208;47.502;18.940;2023-05-13T00:18:28;98502.13;;;9.72;100.00
65756;BME280;69208;47.502;18.940;2023-05-13T00:19:31;98499.56;;;9.67;100.00
65756;BME280;69208;47.502;18.940;2023-05-13T00:20:34;98499.03;;;9.70;100.00
65756;BME280;69208;47.502;18.940;2023-05-13T00:21:36;98500.34;;;9.68;100.00
65756;BME280;69208;47.502;18.940;2023-05-13T00:22:39;98502.38;;;9.47;100.00
65756;BME280;69208;47.502;18.940;2023-05-13T00:23:42;98503.38;;;9.51;100.00
65756;BME280;69208;47.502;18.940;2023-05-13T00:24:44;98505.06;;;9.66;100.00
65756;BME280;69208;47.502;18.940;2023-05-13T00:25:47;98503.16;;;9.76;100.00
65756;BME280;69208;47.502;18.940;2023-05-13T00:26:50;98503.91;;;9.77;100.00
65756;BME280;69208;47.502;18.940;2023-05-13T00:27:52;98499.03;;;9.70;100.00
65756;BME280;69208;47.502;18.940;2023-05-13T00:28:55;98501.84;;;9.74;100.00
65756;BME280;69208;47.502;18.940;2023-05-13T00:29:58;98502.47;;;9.66;100.00
65756;BME280;69208;47.502;18.940;2023-05-13T00:31:01;98499.09;;;9.60;100.00
65756;BME280;69208;47.502;18.940;2023-05-13T00:32:05;98506.19;;;9.60;100.00
65756;BME280;69208;47.502;18.940;2023-05-13T00:33:08;98501.53;;;9.51;100.00
65756;BME280;69208;47.502;18.940;2023-05-13T00:34:11;98511.50;;;9.49;100.00
65756;BME280;69208;47.502;18.940;2023-05-13T00:35:13;98509.13;;;9.53;100.00
65756;BME280;69208;47.502;18.940;2023-05-13T00:36:16;98502.09;;;9.48;100.00
65756;BME280;69208;47.502;18.940;2023-05-13T00:37:19;98509.91;;;9.53;100.00
65756;BME280;69208;47.502;18.940;2023-05-13T00:38:21;98507.63;;;9.47;100.00
65756;BME280;69208;47.502;18.940;2023-05-13T00:39:24;98511.41;;;9.60;100.00
65756;BME280;69208;47.502;18.940;2023-05-13T00:40:27;98512.41;;;9.64;100.00
65756;BME280;69208;47.502;18.940;2023-05-13T00:41:30;98514.63;;;9.51;100.00
65756;BME280;69208;47.502;18.940;2023-05-13T00:42:32;98512.34;;;9.45;100.00
65756;BME280;69208;47.502;18.940;2023-05-13T00:43:35;98514.41;;;9.48;100.00
65756;BME280;69208;47.502;18.940;2023-05-13T00:44:38;98503.59;;;9.54;100.00
65756;BME280;69208;47.502;18.940;2023-05-13T00:45:42;98517.34;;;9.41;100.00
65756;BME280;69208;47.502;18.940;2023-05-13T00:46:45;98507.13;;;9.40;100.00
65756;BME280;69208;47.502;18.940;2023-05-13T00:47:48;98505.06;;;9.37;100.00
65756;BME280;69208;47.502;18.940;2023-05-13T00:48:51;98511.59;;;9.39;100.00
65756;BME280;69208;47.502;18.940;2023-05-13T00:49:54;98509.75;;;9.40;100.00
65756;BME280;69208;47.502;18.940;2023-05-13T00:50:58;98508.16;;;9.44;100.00
65756;BME280;69208;47.502;18.940;2023-05-13T00:52:01;98505.25;;;9.45;100.00
65756;BME280;69208;47.502;18.940;2023-05-13T00:53:04;98515.13;;;9.53;100.00
65756;BME280;69208;47.502;18.940;2023-05-13T00:54:06;98510.16;;;9.52;100.00
65756;BME280;69208;47.502;18.940;2023-05-13T00:55:09;98511.19;;;9.56;100.00
65756;BME280;69208;47.502;18.940;2023-05-13T00:56:12;98508.03;;;9.59;100.00
65756;BME280;69208;47.502;18.940;2023-05-13T00:57:16;98519.81;;;9.56;100.00
65756;BME280;69208;47.502;18.940;2023-05-13T00:58:19;98515.88;;;9.59;100.00
65756;BME280;69208;47.502;18.940;2023-05-13T00:59:24;98514.81;;;9.60;100.00
65756;BME280;69208;47.502;18.940;2023-05-13T01:00:29;98513.25;;;9.59;100.00
65756;BME280;69208;47.502;18.940;2023-05-13T01:02:49;98521.66;;;9.56;100.00
65756;BME280;69208;47.502;18.940;2023-05-13T01:04:03;98519.53;;;9.58;100.00
65756;BME280;69208;47.502;18.940;2023-05-13T01:05:42;98517.19;;;9.56;100.00
65756;BME280;69208;47.502;18.940;2023-05-13T01:08:31;98524.63;;;9.44;100.00
65756;BME280;69208;47.502;18.940;2023-05-13T01:12:35;98520.72;;;9.42;100.00
65756;BME280;69208;47.502;18.940;2023-05-13T01:13:41;98517.34;;;9.41;100.00
65756;BME280;69208;47.502;18.940;2023-05-13T01:14:57;98514.97;;;9.40;100.00
65756;BME280;69208;47.502;18.940;2023-05-13T01:16:26;98517.28;;;9.46;100.00
65756;BME280;69208;47.502;18.940;2023-05-13T01:17:37;98514.22;;;9.39;100.00
65756;BME280;69208;47.502;18.940;2023-05-13T01:18:47;98519.19;;;9.41;100.00
65756;BME280;69208;47.502;18.940;2023-05-13T01:19:53;98517.38;;;9.36;100.00
65756;BME280;69208;47.502;18.940;2023-05-13T01:21:00;98519.94;;;9.41;100.00
65756;BME280;69208;47.502;18.940;2023-05-13T01:22:04;98520.69;;;9.47;100.00
65756;BME280;69208;47.502;18.940;2023-05-13T01:23:09;98516.09;;;9.33;100.00
65756;BME280;69208;47.502;18.940;2023-05-13T01:24:12;98513.69;;;9.37;100.00
65756;BME280;69208;47.502;18.940;2023-05-13T01:25:15;98514.97;;;9.40;100.00
65756;BME280;69208;47.502;18.940;2023-05-13T01:26:19;98517.53;;;9.50;100.00
65756;BME280;69208;47.502;18.940;2023-05-13T01:27:22;98517.78;;;9.48;100.00
65756;BME280;69208;47.502;18.940;2023-05-13T01:28:25;98519.19;;;9.41;100.00
65756;BME280;69208;47.502;18.940;2023-05-13T01:29:28;98522.59;;;9.36;100.00
65756;BME280;69208;47.502;18.940;2023-05-13T01:30:31;98519.72;;;9.38;100.00
65756;BME280;69208;47.502;18.940;2023-05-13T01:31:34;98527.28;;;9.39;100.00
65756;BME280;69208;47.502;18.940;2023-05-13T01:32:37;98527.31;;;9.34;100.00
65756;BME280;69208;47.502;18.940;2023-05-13T01:33:40;98521.16;;;9.20;100.00
65756;BME280;69208;47.502;18.940;2023-05-13T01:34:45;98523.28;;;9.18;100.00
65756;BME280;69208;47.502;18.940;2023-05-13T01:35:48;98530.22;;;9.32;100.00
65756;BME280;69208;47.502;18.940;2023-05-13T01:36:51;98525.22;;;9.36;100.00
65756;BME280;69208;47.502;18.940;2023-05-13T01:37:56;98527.66;;;9.22;100.00
65756;BME280;69208;47.502;18.940;2023-05-13T01:38:59;98525.31;;;9.26;100.00
65756;BME280;69208;47.502;18.940;2023-05-13T01:40:06;98531.00;;;9.33;100.00
65756;BME280;69208;47.502;18.940;2023-05-13T01:41:25;98524.41;;;9.41;100.00
65756;BME280;69208;47.502;18.940;2023-05-13T01:42:29;98523.37;;;9.37;100.00
65756;BME280;69208;47.502;18.940;2023-05-13T01:43:31;98528.22;;;9.53;100.00
65756;BME280;69208;47.502;18.940;2023-05-13T01:44:34;98524.63;;;9.44;100.00
65756;BME280;69208;47.502;18.940;2023-05-13T01:45:37;98529.84;;;9.44;100.00
65756;BME280;69208;47.502;18.940;2023-05-13T01:46:42;98522.28;;;9.43;100.00
65756;BME280;69208;47.502;18.940;2023-05-13T01:47:45;98527.06;;;9.36;100.00
65756;BME280;69208;47.502;18.940;2023-05-13T01:48:48;98519.44;;;9.39;100.00
65756;BME280;69208;47.502;18.940;2023-05-13T01:49:50;98527.38;;;9.29;100.00
65756;BME280;69208;47.502;18.940;2023-05-13T01:50:54;98523.13;;;9.38;100.00
65756;BME280;69208;47.502;18.940;2023-05-13T01:51:56;98528.91;;;9.35;100.00
65756;BME280;69208;47.502;18.940;2023-05-13T01:52:59;98520.03;;;9.31;100.00
65756;BME280;69208;47.502;18.940;2023-05-13T01:54:03;98522.03;;;9.44;100.00
65756;BME280;69208;47.502;18.940;2023-05-13T01:55:06;98525.97;;;9.42;100.00
65756;BME280;69208;47.502;18.940;2023-05-13T01:56:09;98521.06;;;9.35;100.00
65756;BME280;69208;47.502;18.940;2023-05-13T01:57:14;98521.28;;;9.39;100.00
65756;BME280;69208;47.502;18.940;2023-05-13T01:58:17;98521.28;;;9.39;100.00
65756;BME280;69208;47.502;18.940;2023-05-13T01:59:20;98525.66;;;9.43;100.00
65756;BME280;69208;47.502;18.940;2023-05-13T02:00:23;98527.28;;;9.39;100.00
65756;BME280;69208;47.502;18.940;2023-05-13T02:01:26;98529.13;;;9.39;100.00
65756;BME280;69208;47.502;18.940;2023-05-13T02:02:28;98527.56;;;9.38;100.00
65756;BME280;69208;47.502;18.940;2023-05-13T02:03:31;98522.06;;;9.39;100.00
65756;BME280;69208;47.502;18.940;2023-05-13T02:04:34;98526.50;;;9.39;100.00
65756;BME280;69208;47.502;18.940;2023-05-13T02:05:37;98524.91;;;9.43;100.00
65756;BME280;69208;47.502;18.940;2023-05-13T02:06:39;98530.78;;;9.29;100.00
65756;BME280;69208;47.502;18.940;2023-05-13T02:07:42;98530.53;;;9.26;100.00
65756;BME280;69208;47.502;18.940;2023-05-13T02:08:45;98521.66;;;9.22;100.00
65756;BME280;69208;47.502;18.940;2023-05-13T02:09:48;98530.00;;;9.29;100.00
65756;BME280;69208;47.502;18.940;2023-05-13T02:10:55;98524.25;;;9.27;100.00
65756;BME280;69208;47.502;18.940;2023-05-13T02:11:58;98525.31;;;9.26;100.00
65756;BME280;69208;47.502;18.940;2023-05-13T02:13:01;98526.84;;;9.32;100.00
65756;BME280;69208;47.502;18.940;2023-05-13T02:14:05;98525.66;;;9.43;100.00
65756;BME280;69208;47.502;18.940;2023-05-13T02:15:08;98522.97;;;9.53;100.00
65756;BME280;69208;47.502;18.940;2023-05-13T02:16:16;98523.00;;;9.48;100.00
65756;BME280;69208;47.502;18.940;2023-05-13T02:17:19;98518.62;;;9.44;100.00
65756;BME280;69208;47.502;18.940;2023-05-13T02:18:22;98522.03;;;9.44;100.00
65756;BME280;69208;47.502;18.940;2023-05-13T02:19:24;98522.50;;;9.46;100.00
65756;BME280;69208;47.502;18.940;2023-05-13T02:20:27;98526.91;;;9.51;100.00
65756;BME280;69208;47.502;18.940;2023-05-13T02:21:30;98520.41;;;9.48;100.00
65756;BME280;69208;47.502;18.940;2023-05-13T02:22:33;98527.25;;;9.44;100.00
65756;BME280;69208;47.502;18.940;2023-05-13T02:23:36;98525.66;;;9.43;100.00
65756;BME280;69208;47.502;18.940;2023-05-13T02:24:38;98524.09;;;9.47;100.00
65756;BME280;69208;47.502;18.940;2023-05-13T02:25:42;98528.53;;;9.47;100.00
65756;BME280;69208;47.502;18.940;2023-05-13T02:26:45;98530.09;;;9.48;100.00
65756;BME280;69208;47.502;18.940;2023-05-13T02:27:48;98524.91;;;9.43;100.00
65756;BME280;69208;47.502;18.940;2023-05-13T02:28:50;98529.28;;;9.52;100.00
65756;BME280;69208;47.502;18.940;2023-05-13T02:29:53;98523.31;;;9.47;100.00
65756;BME280;69208;47.502;18.940;2023-05-13T02:30:56;98527.72;;;9.46;100.00
65756;BME280;69208;47.502;18.940;2023-05-13T02:31:59;98525.13;;;9.46;100.00
65756;BME280;69208;47.502;18.940;2023-05-13T02:33:02;98524.13;;;9.42;100.00
65756;BME280;69208;47.502;18.940;2023-05-13T02:34:05;98526.41;;;9.49;100.00
65756;BME280;69208;47.502;18.940;2023-05-13T02:35:08;98528.63;;;9.31;100.00
65756;BME280;69208;47.502;18.940;2023-05-13T02:36:11;98526.53;;;9.33;100.00
65756;BME280;69208;47.502;18.940;2023-05-13T02:37:13;98525.66;;;9.43;100.00
65756;BME280;69208;47.502;18.940;2023-05-13T02:38:16;98526.78;;;9.37;100.00
65756;BME280;69208;47.502;18.940;2023-05-13T02:39:19;98527.84;;;9.36;100.00
65756;BME280;69208;47.502;18.940;2023-05-13T02:40:21;98529.19;;;9.28;100.00
65756;BME280;69208;47.502;18.940;2023-05-13T02:41:25;98534.97;;;9.25;100.00
65756;BME280;69208;47.502;18.940;2023-05-13T02:42:27;98525.66;;;9.43;100.00
65756;BME280;69208;47.502;18.940;2023-05-13T02:43:31;98524.09;;;9.47;100.00
65756;BME280;69208;47.502;18.940;2023-05-13T02:44:33;98535.09;;;9.44;100.00
65756;BME280;69208;47.502;18.940;2023-05-13T02:45:38;98535.91;;;9.40;100.00
65756;BME280;69208;47.502;18.940;2023-05-13T02:46:42;98533.25;;;9.45;100.00
65756;BME280;69208;47.502;18.940;2023-05-13T02:47:45;98534.88;;;9.41;100.00
65756;BME280;69208;47.502;18.940;2023-05-13T02:48:48;98534.81;;;9.46;100.00
65756;BME280;69208;47.502;18.940;2023-05-13T02:49:52;98531.38;;;9.50;100.00
65756;BME280;69208;47.502;18.940;2023-05-13T02:50:54;98538.66;;;9.53;100.00
65756;BME280;69208;47.502;18.940;2023-05-13T02:51:57;98537.37;;;9.51;100.00
65756;BME280;69208;47.502;18.940;2023-05-13T02:53:00;98534.91;;;9.36;100.00
65756;BME280;69208;47.502;18.940;2023-05-13T02:54:03;98536.19;;;9.38;100.00
65756;BME280;69208;47.502;18.940;2023-05-13T02:55:07;98534.81;;;9.46;100.00
65756;BME280;69208;47.502;18.940;2023-05-13T02:56:10;98528.22;;;9.53;100.00
65756;BME280;69208;47.502;18.940;2023-05-13T02:57:13;98536.38;;;9.47;100.00
65756;BME280;69208;47.502;18.940;2023-05-13T02:58:16;98532.41;;;9.49;100.00
65756;BME280;69208;47.502;18.940;2023-05-13T02:59:19;98538.50;;;9.40;100.00
65756;BME280;69208;47.502;18.940;2023-05-13T03:00:21;98538.19;;;9.46;100.00
65756;BME280;69208;47.502;18.940;2023-05-13T03:01:24;98526.91;;;9.51;100.00
65756;BME280;69208;47.502;18.940;2023-05-13T03:02:28;98522.25;;;9.48;100.00
65756;BME280;69208;47.502;18.940;2023-05-13T03:03:31;98535.31;;;9.48;100.00
65756;BME280;69208;47.502;18.940;2023-05-13T03:04:34;98538.66;;;9.53;100.00
65756;BME280;69208;47.502;18.940;2023-05-13T03:05:37;98534.22;;;9.54;100.00
65756;BME280;69208;47.502;18.940;2023-05-13T03:06:39;98537.56;;;9.60;100.00
65756;BME280;69208;47.502;18.940;2023-05-13T03:07:42;98540.22;;;9.54;100.00
65756;BME280;69208;47.502;18.940;2023-05-13T03:08:45;98539.19;;;9.55;100.00
65756;BME280;69208;47.502;18.940;2023-05-13T03:09:47;98533.03;;;9.41;100.00
65756;BME280;69208;47.502;18.940;2023-05-13T03:10:50;98538.47;;;9.45;100.00
65756;BME280;69208;47.502;18.940;2023-05-13T03:11:53;98536.31;;;9.52;100.00
65756;BME280;69208;47.502;18.940;2023-05-13T03:12:56;98543.19;;;9.43;100.00
65756;BME280;69208;47.502;18.940;2023-05-13T03:13:59;98531.97;;;9.42;100.00
65756;BME280;69208;47.502;18.940;2023-05-13T03:15:02;98535.53;;;9.51;100.00
65756;BME280;69208;47.502;18.940;2023-05-13T03:16:05;98534.91;;;9.36;100.00
65756;BME280;69208;47.502;18.940;2023-05-13T03:17:09;98537.03;;;9.28;100.00
65756;BME280;69208;47.502;18.940;2023-05-13T03:18:11;98538.63;;;9.29;100.00
65756;BME280;69208;47.502;18.940;2023-05-13T03:19:14;98540.94;;;9.31;100.00
65756;BME280;69208;47.502;18.940;2023-05-13T03:20:17;98536.97;;;9.39;100.00
65756;BME280;69208;47.502;18.940;2023-05-13T03:21:20;98545.03;;;9.42;100.00
65756;BME280;69208;47.502;18.940;2023-05-13T03:22:22;98544.63;;;9.30;100.00
65756;BME280;69208;47.502;18.940;2023-05-13T03:23:25;98539.91;;;9.32;100.00
65756;BME280;69208;47.502;18.940;2023-05-13T03:24:28;98537.50;;;9.36;100.00
65756;BME280;69208;47.502;18.940;2023-05-13T03:25:30;98545.25;;;9.46;100.00
65756;BME280;69208;47.502;18.940;2023-05-13T03:26:33;98547.50;;;9.28;100.00
65756;BME280;69208;47.502;18.940;2023-05-13T03:27:37;98547.56;;;9.23;100.00
65756;BME280;69208;47.502;18.940;2023-05-13T03:28:40;98540.53;;;9.14;100.00
65756;BME280;69208;47.502;18.940;2023-05-13T03:29:43;98544.44;;;9.16;100.00
65756;BME280;69208;47.502;18.940;2023-05-13T03:30:45;98544.69;;;9.20;100.00
65756;BME280;69208;47.502;18.940;2023-05-13T03:31:49;98543.69;;;9.10;100.00
65756;BME280;69208;47.502;18.940;2023-05-13T03:32:52;98547.16;;;9.01;100.00
65756;BME280;69208;47.502;18.940;2023-05-13T03:33:54;98547.16;;;9.06;100.00
65756;BME280;69208;47.502;18.940;2023-05-13T03:34:57;98542.88;;;9.20;100.00
65756;BME280;69208;47.502;18.940;2023-05-13T03:36:03;98550.66;;;9.25;100.00
65756;BME280;69208;47.502;18.940;2023-05-13T03:37:06;98546.81;;;9.18;100.00
65756;BME280;69208;47.502;18.940;2023-05-13T03:38:09;98551.50;;;9.21;100.00
65756;BME280;69208;47.502;18.940;2023-05-13T03:39:11;98553.34;;;9.15;100.00
65756;BME280;69208;47.502;18.940;2023-05-13T03:40:14;98547.16;;;9.06;100.00
65756;BME280;69208;47.502;18.940;2023-05-13T03:41:17;98548.13;;;9.15;100.00
65756;BME280;69208;47.502;18.940;2023-05-13T03:42:20;98557.53;;;9.16;100.00
65756;BME280;69208;47.502;18.940;2023-05-13T03:43:24;98552.53;;;9.20;100.00
65756;BME280;69208;47.502;18.940;2023-05-13T03:44:27;98558.78;;;9.24;100.00
65756;BME280;69208;47.502;18.940;2023-05-13T03:45:30;98557.06;;;9.09;100.00
65756;BME280;69208;47.502;18.940;2023-05-13T03:46:32;98559.94;;;9.07;100.00
65756;BME280;69208;47.502;18.940;2023-05-13T03:47:35;98554.13;;;9.16;100.00
65756;BME280;69208;47.502;18.940;2023-05-13T03:48:40;98564.31;;;9.17;100.00
65756;BME280;69208;47.502;18.940;2023-05-13T03:49:43;98566.66;;;9.19;100.00
65756;BME280;69208;47.502;18.940;2023-05-13T03:50:45;98565.59;;;9.20;100.00
65756;BME280;69208;47.502;18.940;2023-05-13T03:51:48;98559.31;;;9.21;100.00
65756;BME280;69208;47.502;18.940;2023-05-13T03:52:51;98568.72;;;9.22;100.00
65756;BME280;69208;47.502;18.940;2023-05-13T03:53:54;98564.03;;;9.19;100.00
65756;BME280;69208;47.502;18.940;2023-05-13T03:54:56;98564.81;;;9.19;100.00
65756;BME280;69208;47.502;18.940;2023-05-13T03:55:59;98563.44;;;9.32;100.00
65756;BME280;69208;47.502;18.940;2023-05-13T03:57:02;98566.09;;;9.22;100.00
65756;BME280;69208;47.502;18.940;2023-05-13T03:58:14;98564.75;;;9.29;100.00
65756;BME280;69208;47.502;18.940;2023-05-13T03:59:16;98571.41;;;9.11;100.00
65756;BME280;69208;47.502;18.940;2023-05-13T04:00:19;98568.28;;;9.09;100.00
65756;BME280;69208;47.502;18.940;2023-05-13T04:01:22;98572.94;;;9.18;100.00
65756;BME280;69208;47.502;18.940;2023-05-13T04:02:25;98573.38;;;9.30;100.00
65756;BME280;69208;47.502;18.940;2023-05-13T04:03:28;98569.03;;;9.15;100.00
65756;BME280;69208;47.502;18.940;2023-05-13T04:04:30;98572.44;;;9.10;100.00
65756;BME280;69208;47.502;18.940;2023-05-13T04:05:33;98571.97;;;9.08;100.00
65756;BME280;69208;47.502;18.940;2023-05-13T04:06:36;98580.88;;;9.02;100.00
65756;BME280;69208;47.502;18.940;2023-05-13T04:07:39;98574.81;;;9.12;100.00
65756;BME280;69208;47.502;18.940;2023-05-13T04:08:42;98572.22;;;9.07;100.00
65756;BME280;69208;47.502;18.940;2023-05-13T04:09:45;98580.72;;;9.23;100.00
65756;BME280;69208;47.502;18.940;2023-05-13T04:10:48;98577.41;;;9.17;100.00
65756;BME280;69208;47.502;18.940;2023-05-13T04:11:50;98578.41;;;9.21;100.00
65756;BME280;69208;47.502;18.940;2023-05-13T04:12:53;98576.88;;;9.15;100.00
65756;BME280;69208;47.502;18.940;2023-05-13T04:13:56;98580.25;;;9.16;100.00
65756;BME280;69208;47.502;18.940;2023-05-13T04:14:59;98577.41;;;9.12;100.00
65756;BME280;69208;47.502;18.940;2023-05-13T04:16:02;98577.72;;;9.05;100.00
65756;BME280;69208;47.502;18.940;2023-05-13T04:17:05;98574.03;;;9.11;100.00
65756;BME280;69208;47.502;18.940;2023-05-13T04:18:08;98580.72;;;9.23;100.00
65756;BME280;69208;47.502;18.940;2023-05-13T04:19:11;98581.56;;;9.18;100.00
65756;BME280;69208;47.502;18.940;2023-05-13T04:20:13;98582.09;;;9.15;100.00
65756;BME280;69208;47.502;18.940;2023-05-13T04:21:16;98579.12;;;9.32;100.00
65756;BME280;69208;47.502;18.940;2023-05-13T04:22:20;98578.66;;;9.20;100.00
65756;BME280;69208;47.502;18.940;2023-05-13T04:23:22;98576.78;;;9.25;100.00
65756;BME280;69208;47.502;18.940;2023-05-13T04:24:25;98581.28;;;9.20;100.00
65756;BME280;69208;47.502;18.940;2023-05-13T04:25:28;98581.22;;;9.30;100.00
65756;BME280;69208;47.502;18.940;2023-05-13T04:26:31;98589.31;;;9.28;100.00
65756;BME280;69208;47.502;18.940;2023-05-13T04:27:33;98576.03;;;9.20;100.00
65756;BME280;69208;47.502;18.940;2023-05-13T04:28:36;98587.03;;;9.22;100.00
65756;BME280;69208;47.502;18.940;2023-05-13T04:29:38;98589.38;;;9.23;100.00
65756;BME280;69208;47.502;18.940;2023-05-13T04:30:41;98582.81;;;9.26;100.00
65756;BME280;69208;47.502;18.940;2023-05-13T04:31:44;98593.66;;;9.09;100.00
65756;BME280;69208;47.502;18.940;2023-05-13T04:32:47;98592.59;;;9.10;100.00
65756;BME280;69208;47.502;18.940;2023-05-13T04:33:50;98589.06;;;9.30;100.00
65756;BME280;69208;47.502;18.940;2023-05-13T04:34:53;98593.72;;;9.38;100.00
65756;BME280;69208;47.502;18.940;2023-05-13T04:35:56;98591.16;;;9.28;100.00
65756;BME280;69208;47.502;18.940;2023-05-13T04:36:59;98591.13;;;9.33;100.00
65756;BME280;69208;47.502;18.940;2023-05-13T04:38:02;98589.84;;;9.30;100.00
65756;BME280;69208;47.502;18.940;2023-05-13T04:39:06;98597.16;;;9.28;100.00
65756;BME280;69208;47.502;18.940;2023-05-13T04:40:09;98598.66;;;9.40;100.00
65756;BME280;69208;47.502;18.940;2023-05-13T04:41:11;98593.75;;;9.33;100.00
65756;BME280;69208;47.502;18.940;2023-05-13T04:42:14;98592.22;;;9.27;100.00
65756;BME280;69208;47.502;18.940;2023-05-13T04:43:17;98594.00;;;9.31;100.00
65756;BME280;69208;47.502;18.940;2023-05-13T04:44:20;98586.41;;;9.35;100.00
65756;BME280;69208;47.502;18.940;2023-05-13T04:45:23;98594.28;;;9.30;100.00
65756;BME280;69208;47.502;18.940;2023-05-13T04:46:26;98594.75;;;9.37;100.00
65756;BME280;69208;47.502;18.940;2023-05-13T04:47:28;98593.91;;;9.47;100.00
65756;BME280;69208;47.502;18.940;2023-05-13T04:48:32;98599.63;;;9.49;100.00
65756;BME280;69208;47.502;18.940;2023-05-13T04:49:35;98590.78;;;9.45;100.00
65756;BME280;69208;47.502;18.940;2023-05-13T04:50:38;98591.09;;;9.38;100.00
65756;BME280;69208;47.502;18.940;2023-05-13T04:51:46;98592.09;;;9.42;100.00
65756;BME280;69208;47.502;18.940;2023-05-13T04:52:49;98599.88;;;9.52;100.00
65756;BME280;69208;47.502;18.940;2023-05-13T04:53:52;98589.94;;;9.49;100.00
65756;BME280;69208;47.502;18.940;2023-05-13T04:54:55;98595.97;;;9.50;100.00
65756;BME280;69208;47.502;18.940;2023-05-13T04:55:57;98601.41;;;9.59;100.00
65756;BME280;69208;47.502;18.940;2023-05-13T04:57:02;98597.78;;;9.49;100.00
65756;BME280;69208;47.502;18.940;2023-05-13T04:58:05;98589.47;;;9.47;100.00
65756;BME280;69208;47.502;18.940;2023-05-13T04:59:08;98599.88;;;9.52;100.00
65756;BME280;69208;47.502;18.940;2023-05-13T05:00:11;98598.19;;;9.32;100.00
65756;BME280;69208;47.502;18.940;2023-05-13T05:01:14;98596.31;;;9.38;100.00
65756;BME280;69208;47.502;18.940;2023-05-13T05:02:17;98604.63;;;9.45;100.00
65756;BME280;69208;47.502;18.940;2023-05-13T05:03:19;98603.75;;;9.55;100.00
65756;BME280;69208;47.502;18.940;2023-05-13T05:04:23;98609.00;;;9.55;100.00
65756;BME280;69208;47.502;18.940;2023-05-13T05:05:27;98602.25;;;9.49;100.00
65756;BME280;69208;47.502;18.940;2023-05-13T05:06:30;98598.87;;;9.43;100.00
65756;BME280;69208;47.502;18.940;2023-05-13T05:07:32;98605.69;;;9.44;100.00
65756;BME280;69208;47.502;18.940;2023-05-13T05:08:35;98601.69;;;9.52;100.00
65756;BME280;69208;47.502;18.940;2023-05-13T05:09:38;98607.47;;;9.49;100.00
65756;BME280;69208;47.502;18.940;2023-05-13T05:10:41;98607.81;;;9.37;100.00
65756;BME280;69208;47.502;18.940;2023-05-13T05:11:43;98610.38;;;9.47;100.00
65756;BME280;69208;47.502;18.940;2023-05-13T05:12:46;98609.09;;;9.45;100.00
65756;BME280;69208;47.502;18.940;2023-05-13T05:13:49;98607.03;;;9.37;100.00
65756;BME280;69208;47.502;18.940;2023-05-13T05:14:52;98605.94;;;9.48;100.00
65756;BME280;69208;47.502;18.940;2023-05-13T05:15:55;98612.69;;;9.54;100.00
65756;BME280;69208;47.502;18.940;2023-05-13T05:16:58;98618.72;;;9.49;100.00
65756;BME280;69208;47.502;18.940;2023-05-13T05:18:00;98620.75;;;9.57;100.00
65756;BME280;69208;47.502;18.940;2023-05-13T05:19:03;98620.13;;;9.71;100.00
65756;BME280;69208;47.502;18.940;2023-05-13T05:20:07;98615.16;;;9.69;100.00
65756;BME280;69208;47.502;18.940;2023-05-13T05:21:11;98622.75;;;9.71;100.00
65756;BME280;69208;47.502;18.940;2023-05-13T05:22:13;98619.16;;;9.62;100.00
65756;BME280;69208;47.502;18.940;2023-05-13T05:23:16;98619.72;;;9.59;100.00
65756;BME280;69208;47.502;18.940;2023-05-13T05:24:19;98616.84;;;9.55;100.00
65756;BME280;69208;47.502;18.940;2023-05-13T05:25:22;98619.75;;;9.53;100.00
65756;BME280;69208;47.502;18.940;2023-05-13T05:26:26;98620.25;;;9.55;100.00
65756;BME280;69208;47.502;18.940;2023-05-13T05:27:29;98616.84;;;9.55;100.00
65756;BME280;69208;47.502;18.940;2023-05-13T05:28:31;98615.59;;;9.52;100.00
65756;BME280;69208;47.502;18.940;2023-05-13T05:29:34;98623.16;;;9.49;100.00
65756;BME280;69208;47.502;18.940;2023-05-13T05:30:37;98619.19;;;9.56;100.00
65756;BME280;69208;47.502;18.940;2023-05-13T05:31:42;98612.13;;;9.57;100.00
65756;BME280;69208;47.502;18.940;2023-05-13T05:32:45;98612.97;;;9.52;100.00
65756;BME280;69208;47.502;18.940;2023-05-13T05:33:48;98620.19;;;9.61;100.00
65756;BME280;69208;47.502;18.940;2023-05-13T05:34:51;98612.66;;;9.59;100.00
65756;BME280;69208;47.502;18.940;2023-05-13T05:35:54;98622.69;;;9.76;100.00
65756;BME280;69208;47.502;18.940;2023-05-13T05:36:56;98623.03;;;9.64;100.00
65756;BME280;69208;47.502;18.940;2023-05-13T05:37:59;98617.88;;;9.59;100.00